Terminal Aerodrome Forecast
Issued by NWS Topeka, KS

Home | Current Version | Previous Version | Text Only | Print | Product List | Glossary Off
Versions: 1 2 3 4 5 6 7 8 9 10 11 12 13 14 15 16 17 18

000
FTUS43 KTOP 011128
TAFTOP
TAF
KTOP 011128Z 0112/0212 18008KT P6SM SKC
     FM011700 18012G20KT P6SM FEW050
     FM020000 16007KT P6SM SCT200=

USA.gov is the U.S. government's official web portal to all federal, state and local government web resources and services.